Toyofukumaru — JD2177 — position and weather

sailwx.info

Track history (hours):
 
Tides and Currents Weather Stations Pressure Air Temp Water Temp Dewpoint Dewpoint Depression Visibility Wind Speed Wind Dir Waves Ship Positions

Toyofukumaru

Last reported at 2014-Sep-21 16:12 UTC. Time now 2014-Sep-23 06:24 UTC.
Position N 33°45' E 132°16'.

Length 165 m; draft 6.2 m.

Type: Cargo ship. MMSI: 431200688.

Date/timePositionNaut miles runAvg speedWind from/ knotsBaromVisibWave heightAir tempDewpointWater temp
2014-Sep-21 16:12N 33°45' E 132°16'1421.6
2014-Sep-21 15:32N 33°54' E 132°29'1717.5
2014-Sep-21 14:33N 34°10' E 132°20'1111.1
2014-Sep-21 13:32N 34°21' E 132°22'0 0.0
2014-Sep-21 12:32N 34°21' E 132°22'0 0.0
2014-Sep-21 11:32N 34°21' E 132°22'0 0.0
2014-Sep-21 10:32N 34°21' E 132°22'5 4.8
2014-Sep-21 09:33N 34°16' E 132°21'2018.6
2014-Sep-21 08:30N 34°00' E 132°35'11 9.2
2014-Sep-21 07:20N 33°52' E 132°42'  
2014-Sep-17 00:12N 33°04' E 132°12'1520.2
2014-Sep-16 23:27N 32°52' E 132°22'1718.4
2014-Sep-16 22:30N 32°41' E 132°39'  
Track history (hours):
 
Tides and Currents Weather Stations Pressure Air Temp Water Temp Dewpoint Dewpoint Depression Visibility Wind Speed Wind Dir Waves Ship Positions

Toyofukumaru

Last reported at 2014-Sep-21 16:12 UTC. Time now 2014-Sep-23 06:24 UTC.
Position N 33°45' E 132°16'.

Length 165 m; draft 6.2 m.

Type: Cargo ship. MMSI: 431200688.

Date/timePositionNaut miles runAvg speedWind from/ knotsBaromVisibWave heightAir tempDewpointWater temp
2014-Sep-21 16:12N 33°45' E 132°16'1421.6
2014-Sep-21 15:32N 33°54' E 132°29'1717.5
2014-Sep-21 14:33N 34°10' E 132°20'1111.1
2014-Sep-21 13:32N 34°21' E 132°22'0 0.0
2014-Sep-21 12:32N 34°21' E 132°22'0 0.0
2014-Sep-21 11:32N 34°21' E 132°22'0 0.0
2014-Sep-21 10:32N 34°21' E 132°22'5 4.8
2014-Sep-21 09:33N 34°16' E 132°21'2018.6
2014-Sep-21 08:30N 34°00' E 132°35'11 9.2
2014-Sep-21 07:20N 33°52' E 132°42'  
2014-Sep-17 00:12N 33°04' E 132°12'1520.2
2014-Sep-16 23:27N 32°52' E 132°22'1718.4
2014-Sep-16 22:30N 32°41' E 132°39'  

Dump ship's entire track history